createdAt,value
2018-04-11T00:02:19.764Z,12.70
2018-04-11T00:04:46.004Z,12.70
2018-04-11T00:07:12.295Z,12.70
2018-04-11T00:09:38.580Z,12.70
2018-04-11T00:12:05.602Z,12.70
2018-04-11T00:14:31.926Z,12.60
2018-04-11T00:16:58.192Z,12.50
2018-04-11T00:19:25.250Z,12.50
2018-04-11T00:21:51.531Z,12.40
2018-04-11T00:24:17.830Z,12.50
2018-04-11T00:26:44.128Z,12.40
2018-04-11T00:29:11.178Z,12.40
2018-04-11T00:31:38.214Z,12.30
2018-04-11T00:34:05.215Z,12.30
2018-04-11T00:36:31.479Z,12.20
2018-04-11T00:38:57.807Z,12.20
2018-04-11T00:41:24.357Z,12.00
2018-04-11T00:43:51.343Z,11.90
2018-04-11T00:46:17.637Z,11.80
2018-04-11T00:48:44.706Z,11.80
2018-04-11T00:51:11.013Z,11.80
2018-04-11T00:53:38.038Z,11.70
2018-04-11T00:56:04.377Z,11.70
2018-04-11T00:58:31.413Z,11.60
2018-04-11T01:00:57.738Z,11.50
2018-04-11T01:03:24.042Z,11.60
2018-04-11T01:05:50.366Z,11.50
2018-04-11T01:08:16.631Z,11.50
2018-04-11T01:10:42.933Z,11.40
2018-04-11T01:13:09.263Z,11.40
2018-04-11T01:15:35.521Z,11.40
2018-04-11T01:18:01.798Z,11.30
2018-04-11T01:20:28.065Z,11.40
2018-04-11T01:22:54.326Z,11.40
2018-04-11T01:25:20.632Z,11.60
2018-04-11T01:27:46.882Z,11.70
2018-04-11T01:30:13.214Z,11.70
2018-04-11T01:32:39.470Z,11.80
2018-04-11T01:35:06.482Z,11.80
2018-04-11T01:37:32.774Z,11.70
2018-04-11T01:39:59.053Z,11.70
2018-04-11T01:42:25.780Z,11.60
2018-04-11T01:44:52.078Z,11.60
2018-04-11T01:47:18.330Z,11.50
2018-04-11T01:49:44.659Z,11.40
2018-04-11T01:52:11.650Z,11.40
2018-04-11T01:54:38.675Z,11.50
2018-04-11T01:57:04.967Z,11.50
2018-04-11T01:59:31.234Z,11.50
2018-04-11T02:01:57.620Z,11.60
2018-04-11T02:04:23.893Z,11.60
2018-04-11T02:06:51.123Z,11.70
2018-04-11T02:09:17.389Z,11.70
2018-04-11T02:11:43.709Z,11.70
2018-04-11T02:14:10.012Z,11.70
2018-04-11T02:16:36.301Z,11.80
2018-04-11T02:19:03.365Z,11.60
2018-04-11T02:21:29.666Z,11.60
2018-04-11T02:23:55.947Z,11.60
2018-04-11T02:26:22.241Z,11.50
2018-04-11T02:28:48.548Z,11.40
2018-04-11T02:31:14.841Z,11.30
2018-04-11T02:33:41.104Z,11.30
2018-04-11T02:36:07.438Z,11.20
2018-04-11T02:38:33.733Z,11.20
2018-04-11T02:41:00.014Z,11.10
2018-04-11T02:43:27.027Z,11.00
2018-04-11T02:45:53.282Z,11.00
2018-04-11T02:48:20.314Z,10.90
2018-04-11T02:50:46.611Z,10.80
2018-04-11T02:53:12.877Z,10.70
2018-04-11T02:55:39.187Z,10.70
2018-04-11T02:58:05.361Z,10.70
2018-04-11T03:00:32.344Z,10.60
2018-04-11T03:02:58.586Z,10.60
2018-04-11T03:05:24.870Z,10.50
2018-04-11T03:07:51.954Z,10.40
2018-04-11T03:10:18.295Z,10.40
2018-04-11T03:12:44.589Z,10.30
2018-04-11T03:15:10.914Z,10.30
2018-04-11T03:17:37.995Z,10.30
2018-04-11T03:20:04.262Z,10.20
2018-04-11T03:22:30.618Z,10.20
2018-04-11T03:24:56.883Z,10.30
2018-04-11T03:27:23.145Z,10.20
2018-04-11T03:29:49.438Z,10.20
2018-04-11T03:32:15.750Z,10.10
2018-04-11T03:34:42.114Z,10.10
2018-04-11T03:37:08.355Z,10.00
2018-04-11T03:39:34.658Z,10.00
2018-04-11T03:42:00.900Z,10.20
2018-04-11T03:44:27.143Z,10.20
2018-04-11T03:46:54.374Z,10.20
2018-04-11T03:49:20.746Z,10.20
2018-04-11T03:51:47.042Z,10.30
2018-04-11T03:54:13.374Z,10.40
2018-04-11T03:56:39.692Z,10.50
2018-04-11T03:59:06.002Z,10.50
2018-04-11T04:01:32.271Z,10.50
2018-04-11T04:03:58.611Z,10.60
2018-04-11T04:06:24.919Z,10.70
2018-04-11T04:08:51.184Z,10.80
2018-04-11T04:11:17.507Z,10.90
2018-04-11T04:14:02.583Z,11.00
2018-04-11T04:16:47.509Z,11.10
2018-04-11T04:19:32.510Z,11.20
2018-04-11T04:21:58.802Z,11.20
2018-04-11T04:24:25.061Z,11.20
2018-04-11T04:26:51.325Z,11.30
2018-04-11T04:29:18.679Z,11.40
2018-04-11T04:31:44.950Z,11.40
2018-04-11T04:34:11.234Z,11.40
2018-04-11T04:36:39.048Z,11.50
2018-04-11T04:39:05.328Z,11.50
2018-04-11T04:41:31.902Z,11.50
2018-04-11T04:43:58.938Z,11.30
2018-04-11T04:46:25.970Z,11.30
2018-04-11T04:48:52.255Z,11.30
2018-04-11T04:51:18.557Z,11.10
2018-04-11T04:53:45.603Z,11.00
2018-04-11T04:56:11.897Z,11.00
2018-04-11T04:58:38.163Z,11.10
2018-04-11T05:01:05.221Z,11.30
2018-04-11T05:03:31.503Z,11.30
2018-04-11T05:05:57.852Z,11.50
2018-04-11T05:08:30.954Z,11.60
2018-04-11T05:10:58.012Z,11.80
2018-04-11T05:13:25.909Z,11.80
2018-04-11T05:15:52.243Z,11.80
2018-04-11T05:18:19.327Z,11.90
2018-04-11T05:20:45.615Z,11.70
2018-04-11T05:23:11.937Z,11.70
2018-04-11T05:25:38.248Z,11.80
2018-04-11T05:28:05.322Z,11.80
2018-04-11T05:30:31.586Z,11.80
2018-04-11T05:32:57.929Z,11.80
2018-04-11T05:35:24.287Z,11.90
2018-04-11T05:37:51.337Z,12.20
2018-04-11T05:40:18.395Z,12.50
2018-04-11T05:42:44.647Z,12.50
2018-04-11T05:45:10.901Z,12.60
2018-04-11T05:47:37.191Z,12.70
2018-04-11T05:50:04.461Z,12.70
2018-04-11T05:52:30.755Z,12.80
2018-04-11T05:54:57.772Z,13.10
2018-04-11T05:57:24.058Z,13.10
2018-04-11T05:59:50.326Z,13.30
2018-04-11T06:02:16.622Z,13.50
2018-04-11T06:04:42.906Z,13.80
2018-04-11T06:07:09.170Z,13.70
2018-04-11T06:09:35.497Z,13.60
2018-04-11T06:12:01.834Z,13.60
2018-04-11T06:14:28.165Z,13.70
2018-04-11T06:16:54.444Z,13.90
2018-04-11T06:19:20.726Z,13.90
2018-04-11T06:21:47.035Z,13.90
2018-04-11T06:24:14.226Z,13.90
2018-04-11T06:26:40.530Z,14.10
2018-04-11T06:29:06.812Z,14.20
2018-04-11T06:31:33.066Z,14.50
2018-04-11T06:34:00.066Z,14.90
2018-04-11T06:36:26.341Z,14.80
2018-04-11T06:38:53.409Z,14.70
2018-04-11T06:41:20.424Z,14.70
2018-04-11T06:43:46.726Z,14.70
2018-04-11T06:46:13.047Z,14.80
2018-04-11T06:48:39.349Z,14.70
2018-04-11T06:51:06.382Z,14.80
2018-04-11T06:53:33.421Z,14.90
2018-04-11T06:55:59.711Z,14.90
2018-04-11T06:58:26.030Z,15.30
2018-04-11T07:00:52.279Z,15.20
2018-04-11T07:03:25.605Z,14.90
2018-04-11T07:05:52.603Z,15.00
2018-04-11T07:08:18.933Z,15.00
2018-04-11T07:10:45.217Z,15.10
2018-04-11T07:13:11.486Z,15.50
2018-04-11T07:15:37.762Z,15.50
2018-04-11T07:18:04.028Z,15.70
2018-04-11T07:20:30.342Z,16.10
2018-04-11T07:22:57.343Z,16.70
2018-04-11T07:25:23.631Z,16.70
2018-04-11T07:27:50.633Z,17.30
2018-04-11T07:30:17.801Z,17.30
2018-04-11T07:32:44.062Z,17.40
2018-04-11T07:35:11.076Z,17.60
2018-04-11T07:37:37.339Z,17.50
2018-04-11T07:40:03.664Z,17.60
2018-04-11T07:42:31.006Z,18.00
2018-04-11T07:44:57.352Z,18.00
2018-04-11T07:47:24.417Z,17.90
2018-04-11T07:49:50.792Z,17.90
2018-04-11T07:52:17.074Z,18.50
2018-04-11T07:54:43.381Z,18.70
2018-04-11T07:57:10.407Z,19.60
2018-04-11T07:59:36.742Z,19.60
2018-04-11T08:02:03.068Z,19.10
2018-04-11T08:04:29.337Z,18.50
2018-04-11T08:06:56.385Z,19.10
2018-04-11T08:09:23.408Z,19.60
2018-04-11T08:11:50.441Z,19.70
2018-04-11T08:14:16.716Z,19.60
2018-04-11T08:16:43.015Z,19.80
2018-04-11T08:19:10.790Z,19.70
2018-04-11T08:21:37.830Z,20.40
2018-04-11T08:24:04.078Z,20.40
2018-04-11T08:26:31.137Z,20.00
2018-04-11T08:28:57.408Z,20.00
2018-04-11T08:31:23.722Z,20.10
2018-04-11T08:33:49.998Z,19.60
2018-04-11T08:36:16.311Z,19.50
2018-04-11T08:38:42.561Z,19.40
2018-04-11T08:41:08.852Z,19.60
2018-04-11T08:43:35.143Z,19.40
2018-04-11T08:46:02.146Z,19.70
2018-04-11T08:48:28.431Z,19.70
2018-04-11T08:51:01.787Z,19.70
2018-04-11T08:53:28.071Z,19.70
2018-04-11T08:55:54.389Z,19.90
2018-04-11T08:58:20.670Z,19.90
2018-04-11T09:00:46.961Z,20.00
2018-04-11T09:03:13.252Z,20.30
2018-04-11T09:05:40.283Z,19.90
2018-04-11T09:08:06.593Z,19.90
2018-04-11T09:10:32.884Z,20.30
2018-04-11T09:12:59.143Z,20.70
2018-04-11T09:15:25.392Z,20.70
2018-04-11T09:17:51.677Z,20.60
2018-04-11T09:20:17.945Z,20.80
2018-04-11T09:22:44.238Z,20.70
2018-04-11T09:25:10.538Z,21.10
2018-04-11T09:27:36.870Z,21.30
2018-04-11T09:30:03.894Z,21.10
2018-04-11T09:32:30.150Z,21.10
2018-04-11T09:34:57.198Z,21.20
2018-04-11T09:37:24.215Z,21.70
2018-04-11T09:39:50.502Z,21.70
2018-04-11T09:42:16.802Z,21.80
2018-04-11T09:44:43.846Z,21.90
2018-04-11T09:47:10.208Z,21.90
2018-04-11T09:49:36.543Z,21.70
2018-04-11T09:52:02.906Z,22.60
2018-04-11T09:54:29.163Z,22.90
2018-04-11T09:56:55.441Z,22.40
2018-04-11T09:59:21.725Z,22.80
2018-04-11T10:01:49.981Z,22.90
2018-04-11T10:04:16.266Z,22.40
2018-04-11T10:06:42.558Z,21.80
2018-04-11T10:09:08.821Z,21.90
2018-04-11T10:11:35.093Z,22.10
2018-04-11T10:14:01.348Z,22.40
2018-04-11T10:16:27.642Z,22.30
2018-04-11T10:18:53.918Z,22.20
2018-04-11T10:21:20.220Z,22.30
2018-04-11T10:23:47.264Z,22.10
2018-04-11T10:26:13.580Z,22.10
2018-04-11T10:28:39.909Z,21.80
2018-04-11T10:31:06.268Z,22.00
2018-04-11T10:33:32.576Z,22.20
2018-04-11T10:35:58.877Z,22.30
2018-04-11T10:38:25.174Z,22.30
2018-04-11T10:40:51.451Z,22.10
2018-04-11T10:43:17.735Z,21.80
2018-04-11T10:45:44.043Z,21.90
2018-04-11T10:48:10.323Z,21.60
2018-04-11T10:50:37.370Z,21.50
2018-04-11T10:53:03.673Z,21.50
2018-04-11T10:55:29.950Z,21.00
2018-04-11T10:57:56.225Z,20.90
2018-04-11T11:00:22.506Z,22.20
2018-04-11T11:02:48.818Z,21.80
2018-04-11T11:05:15.816Z,21.60
2018-04-11T11:07:42.106Z,21.60
2018-04-11T11:10:08.419Z,21.90
2018-04-11T11:12:35.436Z,23.40
2018-04-11T11:15:01.738Z,23.30
2018-04-11T11:17:28.027Z,23.20
2018-04-11T11:20:01.065Z,23.10
2018-04-11T11:22:27.344Z,23.10
2018-04-11T11:24:54.348Z,24.40
2018-04-11T11:27:20.636Z,24.40
2018-04-11T11:29:47.650Z,25.00
2018-04-11T11:32:13.979Z,25.00
2018-04-11T11:34:40.379Z,26.00
2018-04-11T11:37:06.683Z,24.90
2018-04-11T11:39:32.960Z,24.20
2018-04-11T11:42:00.085Z,25.50
2018-04-11T11:44:26.375Z,26.00
2018-04-11T11:46:53.427Z,27.20
2018-04-11T11:49:20.494Z,27.20
2018-04-11T11:51:46.735Z,27.20
2018-04-11T11:54:13.007Z,27.80
2018-04-11T11:56:40.273Z,28.50
2018-04-11T11:59:07.332Z,29.00
2018-04-11T12:01:34.370Z,31.50
2018-04-11T12:04:00.653Z,31.40
2018-04-11T12:06:26.940Z,34.20
2018-04-11T12:08:53.972Z,34.20
2018-04-11T12:11:20.310Z,34.20
2018-04-11T12:13:46.586Z,37.20
2018-04-11T12:16:12.874Z,36.80
2018-04-11T12:18:39.911Z,34.60
2018-04-11T12:21:06.206Z,34.50
2018-04-11T12:23:32.493Z,32.70
2018-04-11T12:25:59.721Z,31.50
2018-04-11T12:28:26.038Z,31.40
2018-04-11T12:30:52.289Z,30.20
2018-04-11T12:33:18.639Z,29.90
2018-04-11T12:35:45.664Z,32.70
2018-04-11T12:38:11.991Z,32.60
2018-04-11T12:40:38.280Z,31.80
2018-04-11T12:43:04.609Z,29.60
2018-04-11T12:45:30.871Z,29.00
2018-04-11T12:47:57.135Z,27.50
2018-04-11T12:50:24.162Z,26.80
2018-04-11T12:52:50.466Z,26.80
2018-04-11T12:55:16.752Z,29.00
2018-04-11T12:57:43.760Z,33.90
2018-04-11T13:00:10.070Z,33.80
2018-04-11T13:02:36.290Z,31.80
2018-04-11T13:05:02.568Z,30.30
2018-04-11T13:07:29.623Z,30.70
2018-04-11T13:09:56.651Z,32.00
2018-04-11T13:12:22.989Z,32.00
2018-04-11T13:14:49.321Z,33.00
2018-04-11T13:17:15.579Z,32.80
2018-04-11T13:19:42.599Z,33.00
2018-04-11T13:22:08.897Z,33.00
2018-04-11T13:24:35.215Z,31.50
2018-04-11T13:27:01.579Z,29.00
2018-04-11T13:29:27.867Z,28.70
2018-04-11T13:31:54.161Z,27.90
2018-04-11T13:34:21.344Z,25.60
2018-04-11T13:36:47.651Z,25.60
2018-04-11T13:39:14.697Z,25.20
2018-04-11T13:41:41.781Z,25.20
2018-04-11T13:44:08.044Z,25.10
2018-04-11T13:46:34.380Z,25.80
2018-04-11T13:49:01.593Z,26.40
2018-04-11T13:51:27.897Z,27.10
2018-04-11T13:53:54.976Z,31.80
2018-04-11T13:56:21.318Z,31.70
2018-04-11T13:58:47.563Z,33.60
2018-04-11T14:01:13.875Z,34.90
2018-04-11T14:03:40.138Z,37.60
2018-04-11T14:06:06.418Z,39.10
2018-04-11T14:08:32.707Z,39.70
2018-04-11T14:10:59.014Z,39.10
2018-04-11T14:13:25.300Z,38.80
2018-04-11T14:15:51.570Z,37.60
2018-04-11T14:18:17.862Z,38.50
2018-04-11T14:20:44.166Z,37.90
2018-04-11T14:23:11.152Z,41.50
2018-04-11T14:25:37.470Z,41.50
2018-04-11T14:28:03.871Z,41.00
2018-04-11T14:30:30.892Z,39.30
2018-04-11T14:32:57.256Z,39.30
2018-04-11T14:35:24.327Z,35.00
2018-04-11T14:37:50.609Z,34.90
2018-04-11T14:40:16.918Z,33.30
2018-04-11T14:42:43.241Z,30.40
2018-04-11T14:45:09.566Z,29.10
2018-04-11T14:47:35.886Z,27.90
2018-04-11T14:50:02.159Z,27.50
2018-04-11T14:52:28.625Z,26.40
2018-04-11T14:54:55.703Z,25.20
2018-04-11T14:57:21.984Z,25.10
2018-04-11T14:59:48.252Z,25.00
2018-04-11T15:02:14.560Z,25.20
2018-04-11T15:04:41.643Z,25.10
2018-04-11T15:07:07.918Z,25.10
2018-04-11T15:09:34.219Z,25.30
2018-04-11T15:12:00.563Z,25.30
2018-04-11T15:14:26.832Z,26.40
2018-04-11T15:16:53.895Z,25.80
2018-04-11T15:19:20.921Z,25.20
2018-04-11T15:21:47.213Z,25.20
2018-04-11T15:24:13.514Z,24.80
2018-04-11T15:26:39.853Z,24.90
2018-04-11T15:29:06.155Z,25.10
2018-04-11T15:31:33.181Z,29.40
2018-04-11T15:33:59.436Z,29.30
2018-04-11T15:36:26.434Z,30.80
2018-04-11T15:38:52.719Z,30.80
2018-04-11T15:41:19.125Z,30.00
2018-04-11T15:43:45.379Z,29.50
2018-04-11T15:46:31.171Z,27.60
2018-04-11T15:48:58.241Z,28.60
2018-04-11T15:51:24.524Z,28.50
2018-04-11T15:53:50.789Z,29.10
2018-04-11T15:56:17.120Z,29.70
2018-04-11T15:58:44.082Z,31.40
2018-04-11T16:01:10.402Z,31.40
2018-04-11T16:03:36.690Z,30.10
2018-04-11T16:06:04.033Z,29.60
2018-04-11T16:08:30.397Z,29.00
2018-04-11T16:10:57.529Z,26.80
2018-04-11T16:13:23.876Z,26.70
2018-04-11T16:15:50.962Z,26.30
2018-04-11T16:18:17.343Z,26.30
2018-04-11T16:20:43.838Z,26.20
2018-04-11T16:23:10.126Z,26.30
2018-04-11T16:25:37.225Z,25.10
2018-04-11T16:28:03.519Z,25.00
2018-04-11T16:30:30.014Z,24.20
2018-04-11T16:32:56.337Z,23.80
2018-04-11T16:35:22.700Z,23.60
2018-04-11T16:37:49.755Z,24.40
2018-04-11T16:40:16.833Z,24.90
2018-04-11T16:42:43.138Z,24.90
2018-04-11T16:45:10.221Z,24.90
2018-04-11T16:47:36.560Z,24.90
2018-04-11T16:50:02.917Z,24.90
2018-04-11T16:52:29.306Z,25.90
2018-04-11T16:54:55.675Z,26.00
2018-04-11T16:57:22.027Z,25.80
2018-04-11T16:59:48.383Z,26.20
2018-04-11T17:02:14.791Z,26.80
2018-04-11T17:04:41.221Z,26.10
2018-04-11T17:07:08.416Z,25.10
2018-04-11T17:09:34.836Z,25.00
2018-04-11T17:12:01.218Z,23.80
2018-04-11T17:14:27.905Z,23.20
2018-04-11T17:16:54.232Z,22.80
2018-04-11T17:19:20.942Z,22.10
2018-04-11T17:22:05.946Z,21.80
2018-04-11T17:24:50.810Z,21.30
2018-04-11T17:27:35.788Z,20.90
2018-04-11T17:30:21.023Z,20.60
2018-04-11T17:32:47.559Z,20.40
2018-04-11T17:35:13.969Z,20.30
2018-04-11T17:37:40.338Z,20.10
2018-04-11T17:40:07.506Z,19.80
2018-04-11T17:42:33.830Z,19.70
2018-04-11T17:45:00.904Z,19.50
2018-04-11T17:47:27.218Z,19.50
2018-04-11T17:49:53.486Z,19.30
2018-04-11T17:52:19.775Z,19.20
2018-04-11T17:54:46.056Z,19.10
2018-04-11T17:57:12.604Z,19.00
2018-04-11T17:59:38.906Z,18.80
2018-04-11T18:02:05.250Z,18.80
2018-04-11T18:04:31.519Z,18.70
2018-04-11T18:06:58.545Z,18.50
2018-04-11T18:09:24.998Z,18.50
2018-04-11T18:11:51.290Z,18.40
2018-04-11T18:14:17.591Z,18.30
2018-04-11T18:16:43.899Z,18.20
2018-04-11T18:19:10.994Z,18.10
2018-04-11T18:21:37.428Z,18.00
2018-04-11T18:24:03.921Z,18.00
2018-04-11T18:26:30.915Z,17.80
2018-04-11T18:28:57.990Z,17.80
2018-04-11T18:31:24.360Z,17.70
2018-04-11T18:33:50.715Z,17.70
2018-04-11T18:36:17.032Z,17.60
2018-04-11T18:38:43.360Z,17.50
2018-04-11T18:41:09.681Z,17.40
2018-04-11T18:43:36.003Z,17.30
2018-04-11T18:46:03.131Z,17.10
2018-04-11T18:48:30.109Z,17.10
2018-04-11T18:50:56.503Z,17.10
2018-04-11T18:53:22.929Z,17.00
2018-04-11T18:55:49.251Z,16.90
2018-04-11T18:58:15.610Z,16.90
2018-04-11T19:00:42.692Z,16.70
2018-04-11T19:03:09.021Z,16.70
2018-04-11T19:05:35.386Z,16.60
2018-04-11T19:08:01.702Z,16.60
2018-04-11T19:10:27.975Z,16.50
2018-04-11T19:12:54.334Z,16.40
2018-04-11T19:15:21.426Z,16.30
2018-04-11T19:17:47.764Z,16.30
2018-04-11T19:20:14.077Z,16.30
2018-04-11T19:22:40.544Z,16.20
2018-04-11T19:25:07.057Z,16.20
2018-04-11T19:27:33.371Z,16.20
2018-04-11T19:29:59.749Z,16.10
2018-04-11T19:32:26.163Z,16.00
2018-04-11T19:34:52.502Z,16.00
2018-04-11T19:37:18.850Z,15.90
2018-04-11T19:39:45.260Z,15.90
2018-04-11T19:42:11.590Z,15.80
2018-04-11T19:44:37.954Z,15.80
2018-04-11T19:47:05.043Z,15.60
2018-04-11T19:49:31.380Z,15.60
2018-04-11T19:51:57.716Z,15.60
2018-04-11T19:54:24.020Z,15.50
2018-04-11T19:56:50.384Z,15.50
2018-04-11T19:59:16.737Z,15.40
2018-04-11T20:01:43.092Z,15.40
2018-04-11T20:04:10.130Z,15.30
2018-04-11T20:06:37.306Z,15.20
2018-04-11T20:09:04.386Z,15.20
2018-04-11T20:11:30.735Z,15.10
2018-04-11T20:13:57.890Z,15.10
2018-04-11T20:16:24.252Z,15.10
2018-04-11T20:18:50.542Z,15.00
2018-04-11T20:21:16.859Z,14.90
2018-04-11T20:23:43.145Z,14.90
2018-04-11T20:26:09.522Z,14.80
2018-04-11T20:28:35.801Z,14.70
2018-04-11T20:31:02.170Z,14.70
2018-04-11T20:33:28.505Z,14.70
2018-04-11T20:35:54.878Z,14.60
2018-04-11T20:38:21.261Z,14.60
2018-04-11T20:40:47.904Z,14.50
2018-04-11T20:43:14.236Z,14.50
2018-04-11T20:45:40.675Z,14.40
2018-04-11T20:48:07.070Z,14.30
2018-04-11T20:50:34.137Z,14.30
2018-04-11T20:53:00.438Z,14.30
2018-04-11T20:55:26.746Z,14.30
2018-04-11T20:57:53.132Z,14.30
2018-04-11T21:00:20.170Z,14.20
2018-04-11T21:02:47.214Z,14.10
2018-04-11T21:05:14.249Z,14.10
2018-04-11T21:07:41.405Z,13.90
2018-04-11T21:10:08.521Z,13.90
2018-04-11T21:12:35.564Z,13.80
2018-04-11T21:15:01.919Z,13.80
2018-04-11T21:17:28.785Z,13.80
2018-04-11T21:19:55.854Z,13.60
2018-04-11T21:22:22.186Z,13.60
2018-04-11T21:24:48.485Z,13.60
2018-04-11T21:27:14.818Z,13.60
2018-04-11T21:29:41.913Z,13.50
2018-04-11T21:32:08.264Z,13.50
2018-04-11T21:34:34.612Z,13.50
2018-04-11T21:37:00.963Z,13.40
2018-04-11T21:39:27.975Z,13.40
2018-04-11T21:41:55.226Z,13.40
2018-04-11T21:44:21.613Z,13.40
2018-04-11T21:46:48.617Z,13.40
2018-04-11T21:49:14.925Z,13.30
2018-04-11T21:51:41.168Z,13.30
2018-04-11T21:54:07.474Z,13.30
2018-04-11T21:56:33.771Z,13.20
2018-04-11T21:59:00.788Z,13.10
2018-04-11T22:01:27.055Z,13.10
2018-04-11T22:03:54.079Z,13.10
2018-04-11T22:06:20.394Z,13.10
2018-04-11T22:08:46.697Z,13.00
2018-04-11T22:11:13.008Z,13.00
2018-04-11T22:13:39.282Z,12.90
2018-04-11T22:16:05.638Z,12.90
2018-04-11T22:18:31.963Z,12.90
2018-04-11T22:20:58.247Z,12.90
2018-04-11T22:23:24.526Z,12.90
2018-04-11T22:25:50.787Z,12.80
2018-04-11T22:28:17.068Z,12.80
2018-04-11T22:30:43.367Z,12.80
2018-04-11T22:33:09.683Z,12.70
2018-04-11T22:35:36.951Z,12.70
2018-04-11T22:38:03.201Z,12.70
2018-04-11T22:40:29.465Z,12.70
2018-04-11T22:42:55.748Z,12.70
2018-04-11T22:45:22.079Z,12.60
2018-04-11T22:47:48.359Z,12.60
2018-04-11T22:50:14.632Z,12.60
2018-04-11T22:52:40.956Z,12.60
2018-04-11T22:55:07.268Z,12.60
2018-04-11T22:57:34.300Z,12.50
2018-04-11T23:00:00.742Z,12.50
2018-04-11T23:02:27.797Z,12.50
2018-04-11T23:04:54.826Z,12.40
2018-04-11T23:07:21.125Z,12.40
2018-04-11T23:09:47.398Z,12.40
2018-04-11T23:12:14.406Z,12.40
2018-04-11T23:14:40.682Z,12.40
2018-04-11T23:17:07.741Z,12.30
2018-04-11T23:19:34.045Z,12.30
2018-04-11T23:22:00.401Z,12.30
2018-04-11T23:24:26.739Z,12.30
2018-04-11T23:26:53.140Z,12.30
2018-04-11T23:29:19.367Z,12.20
2018-04-11T23:31:45.662Z,12.20
2018-04-11T23:34:11.933Z,12.10
2018-04-11T23:36:38.222Z,12.10
2018-04-11T23:39:04.518Z,12.10
2018-04-11T23:41:30.843Z,12.10
2018-04-11T23:43:57.121Z,12.10
2018-04-11T23:46:23.379Z,12.00
2018-04-11T23:48:49.645Z,12.00
2018-04-11T23:51:15.952Z,11.90
2018-04-11T23:53:42.985Z,11.90
2018-04-11T23:56:09.245Z,11.90
2018-04-11T23:58:35.841Z,11.90
